Time;durP1;ratioP1;P1;durP2;ratioP2;P2;SDS_P1;SDS_P2;PMS_P1;PMS_P2;Temp;Humidity;BMP_temperature;BMP_pressure;BME280_temperature;BME280_humidity;BME280_pressure;Samples;Min_cycle;Max_cycle;Signal;HPM_P1;HPM_P2
2023/07/20 00:00:27;;;;;;;1.30;1.00;;;;;25.40;100292.00;;;;2056809;28;20230;-70
2023/07/20 00:01:27;;;;;;;1.43;1.10;;;;;25.40;100293.00;;;;2067283;28;20218;-70
2023/07/20 00:02:28;;;;;;;1.37;1.27;;;;;25.40;100299.00;;;;2060962;28;20226;-70
2023/07/20 00:03:28;;;;;;;1.00;0.70;;;;;25.40;100292.00;;;;2071272;28;20217;-70
2023/07/20 00:04:28;;;;;;;1.93;1.00;;;;;25.40;100300.00;;;;2065080;28;20218;-70
2023/07/20 00:05:29;;;;;;;1.00;0.90;;;;;25.40;100296.00;;;;2053667;28;20215;-70
2023/07/20 00:06:29;;;;;;;1.57;1.00;;;;;25.40;100295.00;;;;2065443;28;20217;-70
2023/07/20 00:07:29;;;;;;;2.07;1.10;;;;;25.40;100298.00;;;;2064527;28;20686;-70
2023/07/20 00:08:30;;;;;;;1.40;1.00;;;;;25.40;100295.00;;;;2064683;28;20215;-70
2023/07/20 00:09:30;;;;;;;1.20;0.90;;;;;25.40;100303.00;;;;2067065;28;20245;-70
2023/07/20 00:10:30;;;;;;;1.50;0.97;;;;;25.40;100301.00;;;;2054194;28;20214;-70
2023/07/20 00:11:31;;;;;;;1.10;0.90;;;;;25.40;100296.00;;;;2062664;28;20247;-70
2023/07/20 00:12:31;;;;;;;1.20;1.10;;;;;25.40;100272.00;;;;2072161;28;20569;-70
2023/07/20 00:13:31;;;;;;;1.17;0.90;;;;;25.40;100285.00;;;;2063012;28;20619;-70
2023/07/20 00:14:32;;;;;;;1.40;1.10;;;;;25.40;100292.00;;;;2067139;28;20245;-70
2023/07/20 00:15:32;;;;;;;1.83;1.17;;;;;25.40;100290.00;;;;2055155;28;20219;-70
2023/07/20 00:16:33;;;;;;;1.70;1.00;;;;;25.40;100294.00;;;;2063119;28;20250;-70
2023/07/20 00:17:33;;;;;;;1.40;1.00;;;;;25.40;100297.00;;;;2063893;28;20223;-70
2023/07/20 00:18:33;;;;;;;1.83;1.10;;;;;25.40;100287.00;;;;2063004;28;20721;-70
2023/07/20 00:19:34;;;;;;;1.07;0.90;;;;;25.40;100297.00;;;;2068964;28;20717;-70
2023/07/20 00:20:35;;;;;;;1.27;1.15;;;;;25.40;100284.00;;;;2058817;28;20248;-70
2023/07/20 00:21:35;;;;;;;1.40;1.10;;;;;25.40;100279.00;;;;2069852;28;20930;-70
2023/07/20 00:22:35;;;;;;;2.03;1.33;;;;;25.40;100287.00;;;;2070246;28;20617;-70
2023/07/20 00:23:36;;;;;;;1.47;1.10;;;;;25.40;100285.00;;;;2063168;28;20215;-70
2023/07/20 00:24:36;;;;;;;1.60;1.20;;;;;25.40;100286.00;;;;2071205;28;20213;-70
2023/07/20 00:25:36;;;;;;;1.00;0.77;;;;;25.40;100283.00;;;;2058032;28;20233;-70
2023/07/20 00:26:37;;;;;;;1.40;1.20;;;;;25.40;100276.00;;;;2071976;28;20451;-70
2023/07/20 00:27:37;;;;;;;1.37;1.00;;;;;25.40;100274.00;;;;2068410;28;20215;-70
2023/07/20 00:28:38;;;;;;;1.20;1.10;;;;;25.40;100282.00;;;;2065669;28;20211;-70
2023/07/20 00:29:39;;;;;;;1.20;1.10;;;;;25.40;100282.00;;;;2070266;28;20674;-70
2023/07/20 00:30:39;;;;;;;1.53;1.10;;;;;25.40;100282.00;;;;2052896;28;20454;-70
2023/07/20 00:31:40;;;;;;;1.10;1.00;;;;;25.40;100281.00;;;;2071940;28;20301;-70
2023/07/20 00:32:42;;;;;;;1.63;1.00;;;;;25.40;100277.00;;;;2067140;28;20207;-70
2023/07/20 00:33:42;;;;;;;1.70;1.00;;;;;25.40;100277.00;;;;2069700;28;20222;-70
2023/07/20 00:34:42;;;;;;;1.50;1.20;;;;;25.40;100268.00;;;;2061081;28;20470;-70
2023/07/20 00:35:43;;;;;;;1.23;1.03;;;;;25.40;100276.00;;;;2056532;28;20583;-70
2023/07/20 00:36:43;;;;;;;1.53;1.20;;;;;25.40;100275.00;;;;2063882;28;20234;-70
2023/07/20 00:37:43;;;;;;;1.70;1.20;;;;;25.40;100276.00;;;;2062587;28;20215;-70
2023/07/20 00:38:44;;;;;;;1.63;1.33;;;;;25.40;100272.00;;;;2066157;28;20210;-70
2023/07/20 00:39:44;;;;;;;1.20;1.00;;;;;25.40;100275.00;;;;2063761;28;20210;-70
2023/07/20 00:40:44;;;;;;;1.20;1.10;;;;;25.40;100273.00;;;;2059508;28;20285;-70
2023/07/20 00:41:45;;;;;;;1.93;0.90;;;;;25.40;100277.00;;;;2063325;28;20276;-70
2023/07/20 00:42:45;;;;;;;1.20;1.07;;;;;25.40;100286.00;;;;2063388;28;20203;-70
2023/07/20 00:43:45;;;;;;;1.40;1.10;;;;;25.40;100273.00;;;;2066822;28;20207;-70
2023/07/20 00:44:46;;;;;;;1.40;1.03;;;;;25.40;100279.00;;;;2063013;28;20207;-70
2023/07/20 00:45:46;;;;;;;1.27;1.13;;;;;25.40;100278.00;;;;2061656;28;20230;-70
2023/07/20 00:46:47;;;;;;;1.67;1.20;;;;;25.40;100273.00;;;;2073409;28;20213;-70
2023/07/20 00:47:47;;;;;;;1.30;1.07;;;;;25.40;100273.00;;;;2064197;28;20230;-70
2023/07/20 00:48:47;;;;;;;1.10;0.83;;;;;25.40;100275.00;;;;2064527;28;20276;-70
2023/07/20 00:49:48;;;;;;;1.50;0.90;;;;;25.40;100269.00;;;;2066343;28;20207;-70
2023/07/20 00:50:48;;;;;;;1.87;0.97;;;;;25.40;100263.00;;;;2053639;28;20214;-70
2023/07/20 00:51:48;;;;;;;1.20;1.00;;;;;25.40;100271.00;;;;2066512;28;20238;-70
2023/07/20 00:52:49;;;;;;;1.37;0.97;;;;;25.40;100268.00;;;;2062381;28;20306;-70
2023/07/20 00:53:49;;;;;;;1.50;1.10;;;;;25.40;100268.00;;;;2055314;28;20212;-70
2023/07/20 00:54:51;;;;;;;1.43;1.23;;;;;25.40;100262.00;;;;2064384;28;20253;-70
2023/07/20 00:55:51;;;;;;;1.40;1.20;;;;;25.40;100268.00;;;;2058152;28;20206;-70
2023/07/20 00:56:53;;;;;;;1.23;1.00;;;;;25.40;100273.00;;;;2071615;28;20445;-70
2023/07/20 00:57:53;;;;;;;1.40;1.10;;;;;25.40;100272.00;;;;2064042;28;20283;-70
2023/07/20 00:58:53;;;;;;;1.50;1.10;;;;;25.40;100270.00;;;;2066785;28;20523;-70
2023/07/20 00:59:54;;;;;;;1.87;1.37;;;;;25.40;100248.00;;;;2063926;28;20724;-70
2023/07/20 01:00:54;;;;;;;1.20;0.90;;;;;25.40;100283.00;;;;2055778;28;20713;-70
2023/07/20 01:01:54;;;;;;;1.67;1.10;;;;;25.40;100281.00;;;;2075475;28;20221;-70
2023/07/20 01:02:55;;;;;;;1.27;0.80;;;;;25.40;100275.00;;;;2067021;28;20217;-70
2023/07/20 01:03:55;;;;;;;1.17;1.07;;;;;25.40;100277.00;;;;2067945;28;20250;-70
2023/07/20 01:04:55;;;;;;;1.40;1.20;;;;;25.40;100273.00;;;;2063345;28;20320;-70
2023/07/20 01:06:05;;;;;;;1.23;1.03;;;;;25.40;100243.00;;;;2057561;28;20241;-70
2023/07/20 01:07:26;;;;;;;1.23;1.00;;;;;25.30;100275.00;;;;2053999;28;20277;-70
2023/07/20 01:08:30;;;;;;;1.23;0.80;;;;;25.40;100282.00;;;;2048545;28;20459;-70
2023/07/20 01:09:40;;;;;;;2.30;1.13;;;;;25.40;100280.00;;;;2059635;28;20537;-70
2023/07/20 01:10:45;;;;;;;1.53;1.20;;;;;25.40;100277.00;;;;2052471;28;20462;-70
2023/07/20 01:12:09;;;;;;;1.00;0.80;;;;;25.40;100249.00;;;;2061424;28;20517;-70
2023/07/20 01:13:10;;;;;;;1.77;1.37;;;;;25.30;100277.00;;;;2068554;28;20996;-70
2023/07/20 01:14:10;;;;;;;1.10;1.00;;;;;25.40;100241.00;;;;2064326;28;20466;-70
2023/07/20 01:15:12;;;;;;;1.83;1.10;;;;;25.40;100280.00;;;;2044851;28;20226;-70
2023/07/20 01:16:12;;;;;;;1.63;1.10;;;;;25.40;100280.00;;;;2056696;28;21996;-70
2023/07/20 01:17:13;;;;;;;1.10;0.80;;;;;25.30;100268.00;;;;2062457;28;20484;-70
2023/07/20 01:18:13;;;;;;;1.37;1.17;;;;;25.30;100273.00;;;;2065270;28;20214;-70
2023/07/20 01:19:14;;;;;;;1.73;0.70;;;;;25.40;100267.00;;;;2067151;28;20453;-70
2023/07/20 01:20:16;;;;;;;2.80;1.13;;;;;25.40;100271.00;;;;2056331;28;20211;-70
2023/07/20 01:21:49;;;;;;;1.50;0.90;;;;;25.40;100267.00;;;;2054973;28;20761;-70
2023/07/20 01:23:07;;;;;;;1.43;1.23;;;;;25.40;100261.00;;;;2059232;28;20457;-70
2023/07/20 01:24:13;;;;;;;1.23;1.00;;;;;25.40;100263.00;;;;2042916;28;20454;-70
2023/07/20 01:25:31;;;;;;;1.67;1.10;;;;;25.40;100267.00;;;;2047573;28;20466;-70
2023/07/20 01:26:57;;;;;;;1.40;1.00;;;;;25.40;100268.00;;;;2062680;28;20458;-70
2023/07/20 01:28:28;;;;;;;1.87;1.47;;;;;25.40;100272.00;;;;2050646;28;20842;-70
2023/07/20 01:29:41;;;;;;;1.30;1.10;;;;;25.30;100270.00;;;;2058391;28;20851;-70
2023/07/20 01:30:54;;;;;;;0.90;0.70;;;;;25.40;100264.00;;;;2057065;28;20488;-70
2023/07/20 01:31:54;;;;;;;1.13;0.90;;;;;25.30;100275.00;;;;2071177;28;20449;-70
2023/07/20 01:32:56;;;;;;;1.13;0.90;;;;;25.40;100276.00;;;;2064796;28;20468;-70
2023/07/20 01:33:58;;;;;;;1.30;1.10;;;;;25.40;100267.00;;;;2056568;28;20635;-70
2023/07/20 01:34:58;;;;;;;1.23;1.13;;;;;25.30;100264.00;;;;2052061;28;20472;-70
2023/07/20 01:35:59;;;;;;;1.00;0.90;;;;;25.30;100277.00;;;;2069467;28;20979;-70
2023/07/20 01:36:59;;;;;;;1.43;1.20;;;;;25.30;100267.00;;;;2063607;28;20706;-70
2023/07/20 01:37:59;;;;;;;1.47;1.17;;;;;25.40;100233.00;;;;2065884;28;20851;-70
2023/07/20 01:39:00;;;;;;;1.20;0.90;;;;;25.30;100266.00;;;;2059225;28;20712;-70
2023/07/20 01:40:00;;;;;;;1.97;1.00;;;;;25.40;100263.00;;;;2034452;28;20633;-70
2023/07/20 01:41:00;;;;;;;0.80;0.70;;;;;25.40;100259.00;;;;2049738;28;20220;-70
2023/07/20 01:42:01;;;;;;;1.37;1.20;;;;;25.30;100269.00;;;;2046979;28;20224;-70
2023/07/20 01:43:02;;;;;;;2.17;1.03;;;;;25.30;100264.00;;;;2055047;28;20243;-70
2023/07/20 01:44:03;;;;;;;1.40;1.20;;;;;25.30;100266.00;;;;2066663;28;20215;-70
2023/07/20 01:45:04;;;;;;;1.33;0.80;;;;;25.40;100261.00;;;;2055712;28;20465;-70
2023/07/20 01:46:04;;;;;;;1.40;1.10;;;;;25.40;100263.00;;;;2068073;28;20523;-70
2023/07/20 01:47:04;;;;;;;1.37;1.17;;;;;25.40;100261.00;;;;2064641;28;20222;-70
2023/07/20 01:48:05;;;;;;;1.37;0.93;;;;;25.30;100265.00;;;;2068226;28;20225;-70
2023/07/20 01:49:05;;;;;;;1.43;1.10;;;;;25.30;100263.00;;;;2065974;28;20932;-71
2023/07/20 01:50:06;;;;;;;1.00;0.80;;;;;25.30;100267.00;;;;2058906;28;20221;-70
2023/07/20 01:51:07;;;;;;;0.90;0.70;;;;;25.30;100266.00;;;;2065902;28;20297;-70
2023/07/20 01:52:07;;;;;;;1.90;1.30;;;;;25.20;100261.00;;;;2063375;28;20450;-70
2023/07/20 01:53:08;;;;;;;1.37;1.20;;;;;25.30;100238.00;;;;2063625;28;20717;-70
2023/07/20 01:54:08;;;;;;;1.50;1.13;;;;;25.30;100263.00;;;;2063378;28;20215;-70
2023/07/20 01:55:08;;;;;;;1.20;1.10;;;;;25.30;100268.00;;;;2059010;28;20220;-70
2023/07/20 01:56:09;;;;;;;1.20;1.10;;;;;25.30;100265.00;;;;2066051;28;20249;-70
2023/07/20 01:57:09;;;;;;;1.20;1.10;;;;;25.30;100253.00;;;;2071304;28;20230;-70
2023/07/20 01:58:09;;;;;;;1.10;0.90;;;;;25.30;100259.00;;;;2070522;28;20245;-70
2023/07/20 01:59:10;;;;;;;1.73;1.00;;;;;25.30;100255.00;;;;2063691;28;20223;-70
2023/07/20 02:00:12;;;;;;;1.40;0.97;;;;;25.30;100254.00;;;;2055595;28;20211;-70
2023/07/20 02:01:12;;;;;;;1.13;1.03;;;;;25.30;100252.00;;;;2063520;28;20211;-70
2023/07/20 02:02:12;;;;;;;1.97;1.17;;;;;25.30;100256.00;;;;2071527;28;20459;-70
2023/07/20 02:03:13;;;;;;;1.17;0.80;;;;;25.30;100251.00;;;;2063045;28;20226;-70
2023/07/20 02:04:13;;;;;;;1.10;0.90;;;;;25.30;100253.00;;;;2052188;28;20711;-70
2023/07/20 02:05:13;;;;;;;1.67;1.10;;;;;25.30;100251.00;;;;2053052;28;20230;-70
2023/07/20 02:06:14;;;;;;;1.10;0.80;;;;;25.30;100256.00;;;;2062327;28;20226;-70
2023/07/20 02:07:14;;;;;;;1.23;0.97;;;;;25.30;100250.00;;;;2063183;28;20266;-70
2023/07/20 02:08:15;;;;;;;1.47;1.10;;;;;25.30;100257.00;;;;2061859;28;20242;-70
2023/07/20 02:09:16;;;;;;;1.00;0.83;;;;;25.30;100250.00;;;;2064173;28;20203;-70
2023/07/20 02:10:17;;;;;;;1.10;1.00;;;;;25.30;100256.00;;;;2055143;28;20475;-70
2023/07/20 02:11:17;;;;;;;1.27;0.87;;;;;25.30;100253.00;;;;2066727;28;20237;-70
2023/07/20 02:12:17;;;;;;;1.10;0.90;;;;;25.30;100259.00;;;;2066295;28;20219;-70
2023/07/20 02:13:17;;;;;;;1.70;1.03;;;;;25.30;100260.00;;;;2065633;28;20242;-70
2023/07/20 02:14:18;;;;;;;1.27;0.90;;;;;25.30;100258.00;;;;2066713;28;20226;-70
2023/07/20 02:15:19;;;;;;;1.20;0.90;;;;;25.30;100259.00;;;;2053111;28;20538;-70
2023/07/20 02:16:19;;;;;;;1.20;1.00;;;;;25.30;100252.00;;;;2063849;28;20312;-70
2023/07/20 02:17:19;;;;;;;2.17;1.07;;;;;25.30;100257.00;;;;2064661;28;20465;-70
2023/07/20 02:18:20;;;;;;;1.70;1.00;;;;;25.30;100257.00;;;;2063107;28;20211;-71
2023/07/20 02:19:21;;;;;;;1.00;0.90;;;;;25.30;100261.00;;;;2068193;28;20210;-70
2023/07/20 02:20:21;;;;;;;1.30;1.10;;;;;25.30;100267.00;;;;2053046;28;20226;-70
2023/07/20 02:21:21;;;;;;;1.30;1.17;;;;;25.30;100257.00;;;;2064434;28;20253;-70
2023/07/20 02:22:22;;;;;;;1.47;1.03;;;;;25.30;100263.00;;;;2061902;28;20713;-70
2023/07/20 02:23:22;;;;;;;1.10;1.00;;;;;25.30;100261.00;;;;2063923;28;20765;-70
2023/07/20 02:24:22;;;;;;;1.57;0.90;;;;;25.30;100264.00;;;;2069196;28;20214;-70
2023/07/20 02:25:23;;;;;;;1.17;1.07;;;;;25.30;100257.00;;;;2054200;28;20242;-70
2023/07/20 02:26:23;;;;;;;2.03;1.40;;;;;25.30;100258.00;;;;2065121;28;20251;-70
2023/07/20 02:27:23;;;;;;;1.27;1.17;;;;;25.30;100259.00;;;;2065127;28;20222;-70
2023/07/20 02:28:23;;;;;;;2.10;1.60;;;;;25.30;100260.00;;;;2065219;28;20233;-70
2023/07/20 02:29:24;;;;;;;0.90;0.80;;;;;25.30;100255.00;;;;2058386;28;20206;-70
2023/07/20 02:30:24;;;;;;;2.23;1.20;;;;;25.30;100258.00;;;;2055970;28;20230;-70
2023/07/20 02:31:24;;;;;;;1.10;0.93;;;;;25.30;100260.00;;;;2062829;28;20219;-70
2023/07/20 02:32:25;;;;;;;1.10;0.90;;;;;25.30;100258.00;;;;2069891;28;20244;-70
2023/07/20 02:33:25;;;;;;;1.10;1.00;;;;;25.30;100258.00;;;;2064893;28;20250;-70
2023/07/20 02:34:26;;;;;;;1.20;1.03;;;;;25.30;100259.00;;;;2064195;28;20222;-70
2023/07/20 02:35:27;;;;;;;1.10;0.80;;;;;25.30;100266.00;;;;2053676;28;20261;-70
2023/07/20 02:36:27;;;;;;;1.30;0.90;;;;;25.30;100261.00;;;;2062509;28;20223;-70
2023/07/20 02:37:27;;;;;;;1.57;1.03;;;;;25.30;100266.00;;;;2070605;28;20253;-70
2023/07/20 02:38:27;;;;;;;1.33;1.00;;;;;25.30;100268.00;;;;2064050;28;20254;-70
2023/07/20 02:39:28;;;;;;;1.20;1.03;;;;;25.30;100263.00;;;;2063096;28;20272;-70
2023/07/20 02:40:28;;;;;;;1.10;1.00;;;;;25.30;100268.00;;;;2057518;28;20225;-70
2023/07/20 02:41:33;;;;;;;1.67;1.00;;;;;25.30;100267.00;;;;2062646;28;20891;-70
2023/07/20 02:42:33;;;;;;;1.33;0.87;;;;;25.30;100270.00;;;;2063846;28;20693;-70
2023/07/20 02:43:33;;;;;;;2.30;1.40;;;;;25.30;100262.00;;;;2063016;28;20534;-70
2023/07/20 02:44:34;;;;;;;1.43;1.07;;;;;25.30;100275.00;;;;2063008;28;20718;-70
2023/07/20 02:45:34;;;;;;;1.30;1.10;;;;;25.30;100273.00;;;;2059926;28;20682;-70
2023/07/20 02:46:35;;;;;;;1.37;1.10;;;;;25.30;100272.00;;;;2065426;28;20218;-70
2023/07/20 02:47:35;;;;;;;1.27;1.00;;;;;25.30;100273.00;;;;2055511;28;20235;-70
2023/07/20 02:48:35;;;;;;;1.67;1.13;;;;;25.30;100279.00;;;;2063095;28;20227;-70
2023/07/20 02:49:36;;;;;;;1.60;1.20;;;;;25.30;100277.00;;;;2061250;28;20237;-70
2023/07/20 02:50:36;;;;;;;0.90;0.80;;;;;25.30;100280.00;;;;2052568;28;20215;-70
2023/07/20 02:51:36;;;;;;;2.53;1.30;;;;;25.30;100282.00;;;;2067064;28;20244;-70
2023/07/20 02:52:37;;;;;;;1.27;0.93;;;;;25.30;100286.00;;;;2062915;28;20230;-70
2023/07/20 02:53:38;;;;;;;1.57;1.40;;;;;25.30;100272.00;;;;2061180;28;20215;-70
2023/07/20 02:54:38;;;;;;;1.63;1.03;;;;;25.30;100273.00;;;;2063051;28;20237;-70
2023/07/20 02:55:38;;;;;;;1.17;0.93;;;;;25.30;100288.00;;;;2047241;28;20476;-70
2023/07/20 02:56:39;;;;;;;1.50;0.90;;;;;25.30;100273.00;;;;2067098;28;20217;-70
2023/07/20 02:57:39;;;;;;;1.40;1.30;;;;;25.30;100282.00;;;;2062729;28;20249;-70
2023/07/20 02:58:43;;;;;;;1.53;1.27;;;;;25.30;100276.00;;;;2069787;28;20215;-70
2023/07/20 02:59:43;;;;;;;1.40;1.10;;;;;25.30;100279.00;;;;2064538;28;20279;-70
2023/07/20 03:00:44;;;;;;;1.40;1.00;;;;;25.30;100271.00;;;;2053619;28;20977;-70
2023/07/20 03:01:44;;;;;;;1.37;1.00;;;;;25.30;100277.00;;;;2068026;28;20256;-70
2023/07/20 03:02:47;;;;;;;1.10;0.93;;;;;25.30;100266.00;;;;2063240;28;20207;-70
2023/07/20 03:03:47;;;;;;;1.53;0.97;;;;;25.30;100280.00;;;;2069638;28;20202;-70
2023/07/20 03:04:48;;;;;;;1.10;0.90;;;;;25.30;100279.00;;;;2062595;28;20473;-70
2023/07/20 03:05:54;;;;;;;1.57;1.10;;;;;25.30;100283.00;;;;2053131;28;20214;-70
2023/07/20 03:06:54;;;;;;;1.50;1.17;;;;;25.30;100284.00;;;;2056411;28;20304;-70
2023/07/20 03:07:55;;;;;;;1.30;1.00;;;;;25.30;100282.00;;;;2064305;28;20454;-70
2023/07/20 03:08:56;;;;;;;1.25;0.95;;;;;25.30;100281.00;;;;2063468;28;20211;-70
2023/07/20 03:09:57;;;;;;;1.40;1.13;;;;;25.30;100281.00;;;;2057114;28;20994;-70
2023/07/20 03:10:57;;;;;;;1.17;0.90;;;;;25.30;100277.00;;;;2061852;28;20485;-70
2023/07/20 03:11:57;;;;;;;1.33;1.10;;;;;25.30;100275.00;;;;2065575;28;20221;-70
2023/07/20 03:12:58;;;;;;;1.10;0.83;;;;;25.30;100276.00;;;;2062695;28;20281;-70
2023/07/20 03:13:58;;;;;;;1.07;0.90;;;;;25.30;100287.00;;;;2062484;28;20238;-70
2023/07/20 03:14:59;;;;;;;1.00;0.90;;;;;25.30;100285.00;;;;2052396;28;20242;-70
2023/07/20 03:15:59;;;;;;;1.00;0.90;;;;;25.30;100275.00;;;;2063489;28;20233;-70
2023/07/20 03:16:59;;;;;;;1.50;1.00;;;;;25.30;100276.00;;;;2061073;28;20218;-70
2023/07/20 03:18:00;;;;;;;1.23;0.90;;;;;25.30;100275.00;;;;2066428;28;20229;-70
2023/07/20 03:19:00;;;;;;;1.97;1.20;;;;;25.30;100283.00;;;;2063969;28;20206;-70
2023/07/20 03:20:00;;;;;;;1.23;0.90;;;;;25.30;100288.00;;;;2057412;28;20222;-70
2023/07/20 03:21:01;;;;;;;1.57;1.20;;;;;25.30;100288.00;;;;2057733;28;20314;-70
2023/07/20 03:22:01;;;;;;;1.10;1.00;;;;;25.30;100283.00;;;;2062697;28;20215;-70
2023/07/20 03:23:02;;;;;;;1.63;1.50;;;;;25.30;100288.00;;;;2065003;28;20261;-70
2023/07/20 03:24:02;;;;;;;1.43;0.97;;;;;25.30;100280.00;;;;2065037;28;20293;-70
2023/07/20 03:25:04;;;;;;;1.30;1.00;;;;;25.30;100288.00;;;;2057588;28;20218;-70
2023/07/20 03:26:04;;;;;;;1.33;1.10;;;;;25.30;100289.00;;;;2064785;28;20337;-70
2023/07/20 03:27:05;;;;;;;1.40;1.30;;;;;25.30;100286.00;;;;2064319;28;20446;-70
2023/07/20 03:28:05;;;;;;;1.80;0.93;;;;;25.30;100286.00;;;;2066900;28;20222;-70
2023/07/20 03:29:06;;;;;;;1.47;1.17;;;;;25.30;100286.00;;;;2063028;28;20297;-70
2023/07/20 03:30:09;;;;;;;1.20;0.90;;;;;25.30;100279.00;;;;2053180;28;20222;-70
2023/07/20 03:31:09;;;;;;;1.25;1.10;;;;;25.30;100291.00;;;;2064446;28;20250;-70
2023/07/20 03:32:10;;;;;;;1.50;1.40;;;;;25.30;100287.00;;;;2061506;28;20211;-70
2023/07/20 03:33:11;;;;;;;1.33;1.00;;;;;25.30;100292.00;;;;2064209;28;20219;-70
2023/07/20 03:34:11;;;;;;;1.37;1.00;;;;;25.30;100291.00;;;;2061707;28;20827;-70
2023/07/20 03:35:11;;;;;;;1.00;0.90;;;;;25.30;100288.00;;;;2054375;28;20579;-70
2023/07/20 03:36:12;;;;;;;1.60;0.90;;;;;25.30;100297.00;;;;2062471;28;20610;-70
2023/07/20 03:37:13;;;;;;;1.50;1.00;;;;;25.30;100285.00;;;;2066618;28;20246;-70
2023/07/20 03:38:13;;;;;;;1.47;1.00;;;;;25.30;100286.00;;;;2064588;28;20238;-70
2023/07/20 03:39:13;;;;;;;1.20;1.00;;;;;25.30;100287.00;;;;2066072;28;20502;-70
2023/07/20 03:40:14;;;;;;;1.40;1.30;;;;;25.20;100288.00;;;;2053053;28;20211;-70
2023/07/20 03:41:16;;;;;;;1.87;1.00;;;;;25.30;100287.00;;;;2063221;28;20226;-70
2023/07/20 03:42:16;;;;;;;2.40;1.13;;;;;25.30;100288.00;;;;2063515;28;20460;-70
2023/07/20 03:43:16;;;;;;;1.23;1.13;;;;;25.30;100290.00;;;;2063295;28;20548;-70
2023/07/20 03:44:17;;;;;;;2.27;1.20;;;;;25.30;100283.00;;;;2064619;28;20211;-70
2023/07/20 03:45:17;;;;;;;1.40;1.20;;;;;25.30;100288.00;;;;2051372;28;20249;-70
2023/07/20 03:46:17;;;;;;;1.53;1.33;;;;;25.30;100290.00;;;;2061188;28;20242;-70
2023/07/20 03:47:18;;;;;;;1.00;0.90;;;;;25.20;100292.00;;;;2059864;28;20225;-70
2023/07/20 03:48:19;;;;;;;1.90;1.33;;;;;25.30;100292.00;;;;2065111;28;20763;-70
2023/07/20 03:49:20;;;;;;;1.77;1.33;;;;;25.30;100286.00;;;;2062060;28;20226;-70
2023/07/20 03:50:20;;;;;;;1.40;1.17;;;;;25.30;100295.00;;;;2059845;28;20469;-70
2023/07/20 03:51:20;;;;;;;1.90;1.40;;;;;25.20;100294.00;;;;2070362;28;20218;-70
2023/07/20 03:52:20;;;;;;;1.50;1.30;;;;;25.30;100288.00;;;;2062384;28;20223;-70
2023/07/20 03:53:21;;;;;;;1.77;1.30;;;;;25.30;100288.00;;;;2063253;28;20211;-70
2023/07/20 03:54:21;;;;;;;1.37;1.20;;;;;25.30;100289.00;;;;2062355;28;20250;-70
2023/07/20 03:55:21;;;;;;;1.60;1.20;;;;;25.30;100287.00;;;;2053942;28;20230;-70
2023/07/20 03:56:22;;;;;;;1.30;0.93;;;;;25.30;100287.00;;;;2064305;28;20254;-70
2023/07/20 03:57:23;;;;;;;2.67;1.27;;;;;25.30;100294.00;;;;2061088;28;20238;-70
2023/07/20 03:58:23;;;;;;;2.10;1.13;;;;;25.30;100298.00;;;;2067268;28;20467;-70
2023/07/20 03:59:23;;;;;;;1.20;1.00;;;;;25.30;100297.00;;;;2064428;28;20207;-70
2023/07/20 04:00:24;;;;;;;1.57;1.30;;;;;25.30;100292.00;;;;2055112;28;20635;-70
2023/07/20 04:01:24;;;;;;;1.43;1.33;;;;;25.30;100289.00;;;;2059930;28;20709;-70
2023/07/20 04:02:25;;;;;;;1.50;1.10;;;;;25.30;100295.00;;;;2061282;28;20238;-70
2023/07/20 04:03:26;;;;;;;1.40;0.90;;;;;25.30;100296.00;;;;2062399;28;20206;-70
2023/07/20 04:04:27;;;;;;;1.05;0.90;;;;;25.30;100284.00;;;;2063723;28;20978;-70
2023/07/20 04:05:27;;;;;;;1.67;1.27;;;;;25.30;100299.00;;;;2045495;28;20224;-70
2023/07/20 04:06:27;;;;;;;1.20;1.10;;;;;25.30;100304.00;;;;2048137;28;20220;-70
2023/07/20 04:07:28;;;;;;;1.63;1.33;;;;;25.30;100300.00;;;;2061505;28;20261;-70
2023/07/20 04:08:28;;;;;;;1.40;1.10;;;;;25.30;100307.00;;;;2063554;28;20226;-70
2023/07/20 04:09:28;;;;;;;1.93;1.30;;;;;25.30;100304.00;;;;2069016;28;20276;-70
2023/07/20 04:10:29;;;;;;;2.07;1.20;;;;;25.30;100304.00;;;;2054638;28;20223;-71
2023/07/20 04:11:29;;;;;;;1.30;1.20;;;;;25.30;100314.00;;;;2068038;28;20272;-70
2023/07/20 04:12:30;;;;;;;1.57;1.13;;;;;25.30;100310.00;;;;2064298;28;20219;-70
2023/07/20 04:13:34;;;;;;;1.30;1.13;;;;;25.30;100309.00;;;;2062990;28;20226;-70
2023/07/20 04:14:34;;;;;;;2.30;1.30;;;;;25.30;100314.00;;;;2067957;28;20218;-70
2023/07/20 04:15:34;;;;;;;1.73;1.40;;;;;25.20;100305.00;;;;2052071;28;20249;-70
2023/07/20 04:16:35;;;;;;;3.00;1.20;;;;;25.30;100314.00;;;;2062922;28;20257;-70
2023/07/20 04:17:35;;;;;;;1.10;1.00;;;;;25.30;100302.00;;;;2065782;28;20230;-70
2023/07/20 04:18:35;;;;;;;1.37;1.00;;;;;25.30;100310.00;;;;2062541;28;20219;-70
2023/07/20 04:19:36;;;;;;;1.70;1.47;;;;;25.30;100311.00;;;;2068716;28;20221;-70
2023/07/20 04:20:36;;;;;;;1.70;1.20;;;;;25.30;100308.00;;;;2053342;28;20251;-70
2023/07/20 04:21:40;;;;;;;1.70;1.27;;;;;25.20;100302.00;;;;2062678;28;20233;-70
2023/07/20 04:22:41;;;;;;;1.50;1.13;;;;;25.30;100303.00;;;;2066462;28;20221;-70
2023/07/20 04:23:41;;;;;;;1.53;1.17;;;;;25.30;100312.00;;;;2070174;28;20460;-70
2023/07/20 04:24:42;;;;;;;1.20;1.10;;;;;25.30;100311.00;;;;2055210;28;20219;-70
2023/07/20 04:25:42;;;;;;;1.27;0.97;;;;;25.30;100315.00;;;;2053347;28;20656;-70
2023/07/20 04:26:43;;;;;;;1.63;1.20;;;;;25.30;100312.00;;;;2062922;28;20477;-70
2023/07/20 04:27:43;;;;;;;2.10;1.20;;;;;25.20;100310.00;;;;2063595;28;20246;-70
2023/07/20 04:28:44;;;;;;;1.10;1.00;;;;;25.30;100308.00;;;;2053535;28;20327;-70
2023/07/20 04:29:44;;;;;;;2.20;1.47;;;;;25.20;100301.00;;;;2062261;28;20215;-70
2023/07/20 04:30:44;;;;;;;1.50;1.20;;;;;25.30;100302.00;;;;2057560;28;20206;-70
2023/07/20 04:31:45;;;;;;;1.20;1.10;;;;;25.30;100309.00;;;;2062229;28;20222;-70
2023/07/20 04:32:46;;;;;;;1.20;0.93;;;;;25.30;100318.00;;;;2054617;28;20250;-70
2023/07/20 04:33:46;;;;;;;1.48;1.00;;;;;25.20;100316.00;;;;2056173;28;20650;-70
2023/07/20 04:34:47;;;;;;;1.50;1.17;;;;;25.30;100322.00;;;;2061393;28;20250;-70
2023/07/20 04:35:48;;;;;;;1.70;1.50;;;;;25.20;100308.00;;;;2056894;28;20218;-70
2023/07/20 04:36:48;;;;;;;1.85;1.40;;;;;25.30;100318.00;;;;2062517;28;20354;-70
2023/07/20 04:37:48;;;;;;;1.47;1.30;;;;;25.30;100322.00;;;;2063143;28;20354;-70
2023/07/20 04:38:49;;;;;;;1.20;1.10;;;;;25.30;100317.00;;;;2069988;28;20237;-70
2023/07/20 04:39:49;;;;;;;1.60;1.40;;;;;25.30;100319.00;;;;2062198;28;20269;-70
2023/07/20 04:40:50;;;;;;;1.93;1.20;;;;;25.30;100316.00;;;;2066774;28;20558;-70
2023/07/20 04:41:50;;;;;;;1.20;1.10;;;;;25.20;100318.00;;;;2076991;28;20245;-70
2023/07/20 04:42:50;;;;;;;1.90;1.40;;;;;25.30;100315.00;;;;2065111;28;20578;-70
2023/07/20 04:43:50;;;;;;;1.60;1.30;;;;;25.30;100315.00;;;;2068286;28;20804;-70
2023/07/20 04:44:51;;;;;;;1.83;1.30;;;;;25.30;100321.00;;;;2063973;28;20705;-70
2023/07/20 04:45:51;;;;;;;1.20;1.10;;;;;25.30;100317.00;;;;2061207;28;20665;-70
2023/07/20 04:46:51;;;;;;;2.30;1.30;;;;;25.30;100325.00;;;;2065906;28;20300;-70
2023/07/20 04:47:52;;;;;;;2.20;1.40;;;;;25.30;100322.00;;;;2064106;28;20253;-70
2023/07/20 04:48:52;;;;;;;1.40;1.30;;;;;25.30;100324.00;;;;2067485;28;20222;-70
2023/07/20 04:49:52;;;;;;;1.80;1.30;;;;;25.30;100325.00;;;;2071960;28;20319;-70
2023/07/20 04:50:53;;;;;;;2.10;1.37;;;;;25.30;100325.00;;;;2061924;28;20222;-70
2023/07/20 04:51:54;;;;;;;2.43;1.40;;;;;25.20;100324.00;;;;2067545;28;20272;-70
2023/07/20 04:52:54;;;;;;;1.77;1.50;;;;;25.30;100326.00;;;;2064389;28;20686;-69
2023/07/20 04:53:54;;;;;;;1.60;1.43;;;;;25.30;100336.00;;;;2063838;28;20511;-70
2023/07/20 04:54:55;;;;;;;1.30;1.00;;;;;25.30;100325.00;;;;2064264;28;20222;-70
2023/07/20 04:55:55;;;;;;;1.63;1.37;;;;;25.30;100321.00;;;;2053323;28;20223;-70
2023/07/20 04:56:56;;;;;;;2.10;1.17;;;;;25.30;100331.00;;;;2066123;28;20261;-70
2023/07/20 04:57:56;;;;;;;1.30;1.10;;;;;25.30;100333.00;;;;2065278;28;20273;-70
2023/07/20 04:58:56;;;;;;;1.40;1.30;;;;;25.30;100323.00;;;;2063781;28;20285;-70
2023/07/20 04:59:57;;;;;;;1.67;1.20;;;;;25.30;100326.00;;;;2063540;28;20221;-70
2023/07/20 05:00:57;;;;;;;1.60;1.43;;;;;25.30;100322.00;;;;2057348;28;20223;-70
2023/07/20 05:01:58;;;;;;;1.47;1.13;;;;;25.30;100325.00;;;;2069959;28;20228;-70
2023/07/20 05:02:58;;;;;;;2.33;1.40;;;;;25.30;100325.00;;;;2065135;28;20214;-70